Accueil
METAR-TAF:

METAR-TAF

Aéroports :

Aéroport international d'Exeter

Exeter, Angleterre

latitude: 50-44N, longitude: 003-25W, altitude: 30 m

Observation

Le bulletin a été fait il y a 20 minutes, à 17:20 UTC
Vent 17 kt de ouest/sud-ouest
Température 19°C
Humidité 56%
Pression 1008 hPa
Visibilité 10 km ou plus
Quelques nuages à une hauteur de 3500 ft

METAR: EGTE 281720Z 25017KT 9999 FEW035 19/10 Q1008

Heure: 18:40 (17:40 UTC)

Prévision

Le bulletin a été fait il y a 3 heures et 43 minutes, à 13:57 UTC
Prévision valable du 28 à 15 UTC au 28 à 18 UTC
Vent 14 kt de ouest/sud-ouest
Visibilité 10 km ou plus
Quelques nuages à une hauteur de 3000 ft
Probabilité 40% :
Temporairement
du 28 à 15 UTC au 28 à 18 UTC
Vent 18 kt de ouest avec des rafales jusqu'à 28 kt
Visibilité: 7000 m
averses de pluie

TAF: EGTE 281357Z 2815/2818 25014KT 9999 FEW030 PROB40 TEMPO 2815/2818 27018G28KT 7000 SHRA

Observations et prévisions météorologiques de plus de 4000 aéroports (messages METAR et TAF).

Les stations disponibles sont représentées par des disques jaunes et rouges sur la carte.

Passer la souris dessus pour voir le nom de la station.

Cliquer dessus pour voir les observations et prévisions météorologiques.

Pour changer de carte: cliquez sur les boutons verts avec une croix noire pour zoomer, sur le bouton vert avec un tiret pour effectuer un zoom arrière, ou sur les flèches vertes pour les cartes adjacentes.


METAR-TAF: